sensor_id;sensor_type;location;lat;lon;timestamp;P1;durP1;ratioP1;P2;durP2;ratioP2
11034;SDS011;5571;48.110;-1.706;2022-12-10T00:00:37;82.03;;;44.23;;
11034;SDS011;5571;48.110;-1.706;2022-12-10T00:03:03;90.77;;;47.07;;
11034;SDS011;5571;48.110;-1.706;2022-12-10T00:05:29;53.13;;;30.60;;
11034;SDS011;5571;48.110;-1.706;2022-12-10T00:07:58;60.50;;;35.13;;
11034;SDS011;5571;48.110;-1.706;2022-12-10T00:10:23;65.33;;;42.87;;
11034;SDS011;5571;48.110;-1.706;2022-12-10T00:12:49;60.40;;;37.40;;
11034;SDS011;5571;48.110;-1.706;2022-12-10T00:15:15;63.07;;;35.27;;
11034;SDS011;5571;48.110;-1.706;2022-12-10T00:17:41;54.50;;;34.97;;
11034;SDS011;5571;48.110;-1.706;2022-12-10T00:20:07;66.30;;;40.53;;
11034;SDS011;5571;48.110;-1.706;2022-12-10T00:22:33;58.13;;;36.40;;
11034;SDS011;5571;48.110;-1.706;2022-12-10T00:24:59;81.30;;;50.10;;
11034;SDS011;5571;48.110;-1.706;2022-12-10T00:27:25;68.27;;;43.87;;
11034;SDS011;5571;48.110;-1.706;2022-12-10T00:29:50;65.00;;;40.07;;
11034;SDS011;5571;48.110;-1.706;2022-12-10T00:32:16;72.27;;;45.10;;
11034;SDS011;5571;48.110;-1.706;2022-12-10T00:34:41;68.00;;;43.23;;
11034;SDS011;5571;48.110;-1.706;2022-12-10T00:37:07;75.63;;;45.73;;
11034;SDS011;5571;48.110;-1.706;2022-12-10T00:39:33;77.23;;;47.97;;
11034;SDS011;5571;48.110;-1.706;2022-12-10T00:41:59;81.23;;;47.03;;
11034;SDS011;5571;48.110;-1.706;2022-12-10T00:44:24;66.37;;;40.80;;
11034;SDS011;5571;48.110;-1.706;2022-12-10T00:46:50;44.70;;;29.20;;
11034;SDS011;5571;48.110;-1.706;2022-12-10T00:49:16;39.43;;;26.17;;
11034;SDS011;5571;48.110;-1.706;2022-12-10T00:51:41;45.17;;;26.83;;
11034;SDS011;5571;48.110;-1.706;2022-12-10T00:54:07;46.43;;;25.47;;
11034;SDS011;5571;48.110;-1.706;2022-12-10T00:56:33;46.40;;;26.80;;
11034;SDS011;5571;48.110;-1.706;2022-12-10T00:58:59;43.03;;;26.20;;
11034;SDS011;5571;48.110;-1.706;2022-12-10T01:01:28;45.30;;;26.27;;
11034;SDS011;5571;48.110;-1.706;2022-12-10T01:03:59;43.77;;;25.63;;
11034;SDS011;5571;48.110;-1.706;2022-12-10T01:06:30;38.77;;;24.53;;
11034;SDS011;5571;48.110;-1.706;2022-12-10T01:08:58;43.13;;;25.10;;
11034;SDS011;5571;48.110;-1.706;2022-12-10T01:11:28;39.53;;;25.20;;
11034;SDS011;5571;48.110;-1.706;2022-12-10T01:13:55;41.60;;;25.60;;
11034;SDS011;5571;48.110;-1.706;2022-12-10T01:16:22;45.93;;;25.30;;
11034;SDS011;5571;48.110;-1.706;2022-12-10T01:18:49;38.33;;;24.27;;
11034;SDS011;5571;48.110;-1.706;2022-12-10T01:21:16;40.43;;;24.23;;
11034;SDS011;5571;48.110;-1.706;2022-12-10T01:23:45;40.63;;;24.23;;
11034;SDS011;5571;48.110;-1.706;2022-12-10T01:26:13;40.03;;;24.67;;
11034;SDS011;5571;48.110;-1.706;2022-12-10T01:28:41;39.73;;;24.30;;
11034;SDS011;5571;48.110;-1.706;2022-12-10T01:31:08;37.20;;;24.50;;
11034;SDS011;5571;48.110;-1.706;2022-12-10T01:33:37;37.20;;;23.87;;
11034;SDS011;5571;48.110;-1.706;2022-12-10T01:36:14;39.17;;;24.57;;
11034;SDS011;5571;48.110;-1.706;2022-12-10T01:38:41;37.50;;;23.47;;
11034;SDS011;5571;48.110;-1.706;2022-12-10T01:41:07;40.57;;;24.70;;
11034;SDS011;5571;48.110;-1.706;2022-12-10T01:46:33;41.17;;;25.43;;
11034;SDS011;5571;48.110;-1.706;2022-12-10T01:49:05;46.40;;;26.23;;
11034;SDS011;5571;48.110;-1.706;2022-12-10T01:51:34;39.03;;;26.20;;
11034;SDS011;5571;48.110;-1.706;2022-12-10T01:54:02;42.27;;;25.60;;
11034;SDS011;5571;48.110;-1.706;2022-12-10T01:56:31;37.53;;;24.50;;
11034;SDS011;5571;48.110;-1.706;2022-12-10T01:59:01;47.67;;;26.37;;
11034;SDS011;5571;48.110;-1.706;2022-12-10T02:01:39;46.43;;;27.90;;
11034;SDS011;5571;48.110;-1.706;2022-12-10T02:09:56;64.33;;;37.13;;
11034;SDS011;5571;48.110;-1.706;2022-12-10T02:15:17;53.90;;;32.57;;
11034;SDS011;5571;48.110;-1.706;2022-12-10T02:20:28;52.03;;;29.40;;
11034;SDS011;5571;48.110;-1.706;2022-12-10T02:23:05;47.40;;;28.10;;
11034;SDS011;5571;48.110;-1.706;2022-12-10T02:30:53;44.30;;;26.60;;
11034;SDS011;5571;48.110;-1.706;2022-12-10T02:33:19;39.97;;;25.97;;
11034;SDS011;5571;48.110;-1.706;2022-12-10T02:35:48;41.27;;;26.43;;
11034;SDS011;5571;48.110;-1.706;2022-12-10T02:38:17;37.07;;;24.50;;
11034;SDS011;5571;48.110;-1.706;2022-12-10T02:40:49;41.40;;;24.93;;
11034;SDS011;5571;48.110;-1.706;2022-12-10T02:43:20;38.87;;;24.87;;
11034;SDS011;5571;48.110;-1.706;2022-12-10T02:45:47;40.10;;;25.43;;
11034;SDS011;5571;48.110;-1.706;2022-12-10T02:48:14;45.43;;;26.20;;
11034;SDS011;5571;48.110;-1.706;2022-12-10T02:50:40;43.30;;;26.63;;
11034;SDS011;5571;48.110;-1.706;2022-12-10T02:53:05;43.97;;;26.57;;
11034;SDS011;5571;48.110;-1.706;2022-12-10T02:55:46;41.33;;;26.33;;
11034;SDS011;5571;48.110;-1.706;2022-12-10T03:03:50;38.70;;;24.63;;
11034;SDS011;5571;48.110;-1.706;2022-12-10T03:06:30;45.33;;;25.73;;
11034;SDS011;5571;48.110;-1.706;2022-12-10T03:09:07;44.40;;;26.00;;
11034;SDS011;5571;48.110;-1.706;2022-12-10T03:11:38;36.63;;;25.40;;
11034;SDS011;5571;48.110;-1.706;2022-12-10T03:16:39;42.97;;;26.53;;
11034;SDS011;5571;48.110;-1.706;2022-12-10T03:19:16;40.13;;;24.13;;
11034;SDS011;5571;48.110;-1.706;2022-12-10T03:21:44;37.57;;;24.13;;
11034;SDS011;5571;48.110;-1.706;2022-12-10T03:24:14;36.93;;;23.60;;
11034;SDS011;5571;48.110;-1.706;2022-12-10T03:26:41;36.47;;;24.17;;
11034;SDS011;5571;48.110;-1.706;2022-12-10T03:29:12;39.00;;;22.67;;
11034;SDS011;5571;48.110;-1.706;2022-12-10T03:31:56;36.77;;;22.60;;
11034;SDS011;5571;48.110;-1.706;2022-12-10T03:34:23;40.10;;;23.77;;
11034;SDS011;5571;48.110;-1.706;2022-12-10T03:36:49;34.97;;;22.67;;
11034;SDS011;5571;48.110;-1.706;2022-12-10T03:39:16;41.23;;;24.57;;
11034;SDS011;5571;48.110;-1.706;2022-12-10T03:41:42;40.77;;;25.20;;
11034;SDS011;5571;48.110;-1.706;2022-12-10T03:44:07;37.07;;;23.73;;
11034;SDS011;5571;48.110;-1.706;2022-12-10T03:46:33;41.63;;;24.07;;
11034;SDS011;5571;48.110;-1.706;2022-12-10T03:49:00;37.00;;;23.33;;
11034;SDS011;5571;48.110;-1.706;2022-12-10T03:51:27;37.70;;;22.50;;
11034;SDS011;5571;48.110;-1.706;2022-12-10T03:53:53;33.30;;;21.90;;
11034;SDS011;5571;48.110;-1.706;2022-12-10T03:56:19;41.73;;;23.83;;
11034;SDS011;5571;48.110;-1.706;2022-12-10T03:58:45;36.07;;;24.00;;
11034;SDS011;5571;48.110;-1.706;2022-12-10T04:01:11;35.53;;;21.97;;
11034;SDS011;5571;48.110;-1.706;2022-12-10T04:03:38;34.03;;;21.33;;
11034;SDS011;5571;48.110;-1.706;2022-12-10T04:06:06;32.80;;;21.63;;
11034;SDS011;5571;48.110;-1.706;2022-12-10T04:08:35;33.90;;;21.83;;
11034;SDS011;5571;48.110;-1.706;2022-12-10T04:11:02;34.10;;;21.73;;
11034;SDS011;5571;48.110;-1.706;2022-12-10T04:13:30;32.33;;;22.13;;
11034;SDS011;5571;48.110;-1.706;2022-12-10T04:16:18;35.73;;;22.23;;
11034;SDS011;5571;48.110;-1.706;2022-12-10T04:21:33;34.27;;;21.00;;
11034;SDS011;5571;48.110;-1.706;2022-12-10T04:24:19;33.97;;;21.50;;
11034;SDS011;5571;48.110;-1.706;2022-12-10T04:27:11;30.87;;;20.47;;
11034;SDS011;5571;48.110;-1.706;2022-12-10T04:29:45;30.50;;;20.90;;
11034;SDS011;5571;48.110;-1.706;2022-12-10T04:32:11;39.00;;;21.67;;
11034;SDS011;5571;48.110;-1.706;2022-12-10T04:34:37;33.60;;;21.23;;
11034;SDS011;5571;48.110;-1.706;2022-12-10T04:37:03;36.13;;;23.07;;
11034;SDS011;5571;48.110;-1.706;2022-12-10T04:39:29;37.00;;;22.40;;
11034;SDS011;5571;48.110;-1.706;2022-12-10T04:41:56;34.33;;;22.00;;
11034;SDS011;5571;48.110;-1.706;2022-12-10T04:44:22;39.70;;;22.10;;
11034;SDS011;5571;48.110;-1.706;2022-12-10T04:46:48;36.23;;;22.37;;
11034;SDS011;5571;48.110;-1.706;2022-12-10T04:49:13;34.77;;;21.47;;
11034;SDS011;5571;48.110;-1.706;2022-12-10T04:51:40;30.20;;;20.47;;
11034;SDS011;5571;48.110;-1.706;2022-12-10T04:54:06;32.53;;;21.27;;
11034;SDS011;5571;48.110;-1.706;2022-12-10T04:56:32;40.47;;;22.70;;
11034;SDS011;5571;48.110;-1.706;2022-12-10T04:58:58;33.00;;;20.93;;
11034;SDS011;5571;48.110;-1.706;2022-12-10T05:01:25;31.63;;;19.37;;
11034;SDS011;5571;48.110;-1.706;2022-12-10T05:03:51;32.63;;;21.27;;
11034;SDS011;5571;48.110;-1.706;2022-12-10T05:06:17;28.53;;;19.70;;
11034;SDS011;5571;48.110;-1.706;2022-12-10T05:08:44;31.53;;;20.93;;
11034;SDS011;5571;48.110;-1.706;2022-12-10T05:11:10;30.00;;;19.77;;
11034;SDS011;5571;48.110;-1.706;2022-12-10T05:13:41;37.17;;;20.93;;
11034;SDS011;5571;48.110;-1.706;2022-12-10T05:16:09;30.07;;;19.47;;
11034;SDS011;5571;48.110;-1.706;2022-12-10T05:18:36;31.80;;;19.17;;
11034;SDS011;5571;48.110;-1.706;2022-12-10T05:21:04;34.83;;;20.27;;
11034;SDS011;5571;48.110;-1.706;2022-12-10T05:23:32;30.47;;;18.83;;
11034;SDS011;5571;48.110;-1.706;2022-12-10T05:26:07;32.80;;;19.10;;
11034;SDS011;5571;48.110;-1.706;2022-12-10T05:28:36;38.43;;;20.47;;
11034;SDS011;5571;48.110;-1.706;2022-12-10T05:31:03;30.13;;;19.53;;
11034;SDS011;5571;48.110;-1.706;2022-12-10T05:33:29;33.10;;;18.87;;
11034;SDS011;5571;48.110;-1.706;2022-12-10T05:35:57;35.60;;;20.27;;
11034;SDS011;5571;48.110;-1.706;2022-12-10T05:38:27;27.73;;;18.60;;
11034;SDS011;5571;48.110;-1.706;2022-12-10T05:40:54;31.57;;;20.63;;
11034;SDS011;5571;48.110;-1.706;2022-12-10T05:43:20;31.67;;;20.47;;
11034;SDS011;5571;48.110;-1.706;2022-12-10T05:45:45;32.33;;;21.60;;
11034;SDS011;5571;48.110;-1.706;2022-12-10T05:48:12;33.77;;;21.10;;
11034;SDS011;5571;48.110;-1.706;2022-12-10T05:50:39;31.07;;;20.70;;
11034;SDS011;5571;48.110;-1.706;2022-12-10T05:53:06;31.93;;;19.53;;
11034;SDS011;5571;48.110;-1.706;2022-12-10T05:55:32;37.93;;;21.83;;
11034;SDS011;5571;48.110;-1.706;2022-12-10T05:57:58;31.63;;;20.40;;
11034;SDS011;5571;48.110;-1.706;2022-12-10T06:00:25;33.93;;;21.00;;
11034;SDS011;5571;48.110;-1.706;2022-12-10T06:02:51;30.63;;;21.43;;
11034;SDS011;5571;48.110;-1.706;2022-12-10T06:05:17;35.40;;;20.77;;
11034;SDS011;5571;48.110;-1.706;2022-12-10T06:07:43;35.20;;;21.67;;
11034;SDS011;5571;48.110;-1.706;2022-12-10T06:10:09;36.47;;;21.90;;
11034;SDS011;5571;48.110;-1.706;2022-12-10T06:12:35;30.33;;;21.10;;
11034;SDS011;5571;48.110;-1.706;2022-12-10T06:15:02;32.10;;;20.20;;
11034;SDS011;5571;48.110;-1.706;2022-12-10T06:17:28;33.43;;;20.07;;
11034;SDS011;5571;48.110;-1.706;2022-12-10T06:19:53;29.57;;;18.73;;
11034;SDS011;5571;48.110;-1.706;2022-12-10T06:22:19;31.13;;;19.93;;
11034;SDS011;5571;48.110;-1.706;2022-12-10T06:24:45;30.23;;;19.70;;
11034;SDS011;5571;48.110;-1.706;2022-12-10T06:27:10;31.53;;;19.67;;
11034;SDS011;5571;48.110;-1.706;2022-12-10T06:29:36;30.07;;;19.23;;
11034;SDS011;5571;48.110;-1.706;2022-12-10T06:32:02;29.67;;;18.33;;
11034;SDS011;5571;48.110;-1.706;2022-12-10T06:34:27;26.97;;;18.17;;
11034;SDS011;5571;48.110;-1.706;2022-12-10T06:36:53;29.73;;;19.83;;
11034;SDS011;5571;48.110;-1.706;2022-12-10T06:39:19;27.87;;;18.67;;
11034;SDS011;5571;48.110;-1.706;2022-12-10T06:41:44;30.30;;;18.03;;
11034;SDS011;5571;48.110;-1.706;2022-12-10T06:44:11;26.60;;;17.63;;
11034;SDS011;5571;48.110;-1.706;2022-12-10T06:46:37;31.53;;;18.77;;
11034;SDS011;5571;48.110;-1.706;2022-12-10T06:49:04;27.43;;;18.33;;
11034;SDS011;5571;48.110;-1.706;2022-12-10T06:51:30;26.30;;;18.47;;
11034;SDS011;5571;48.110;-1.706;2022-12-10T06:53:56;26.83;;;17.67;;
11034;SDS011;5571;48.110;-1.706;2022-12-10T06:56:22;25.20;;;17.70;;
11034;SDS011;5571;48.110;-1.706;2022-12-10T06:58:48;27.87;;;17.67;;
11034;SDS011;5571;48.110;-1.706;2022-12-10T07:03:47;38.97;;;24.13;;
11034;SDS011;5571;48.110;-1.706;2022-12-10T07:06:14;45.80;;;28.40;;
11034;SDS011;5571;48.110;-1.706;2022-12-10T07:08:40;43.53;;;25.17;;
11034;SDS011;5571;48.110;-1.706;2022-12-10T07:11:06;33.23;;;22.17;;
11034;SDS011;5571;48.110;-1.706;2022-12-10T07:13:33;30.60;;;20.10;;
11034;SDS011;5571;48.110;-1.706;2022-12-10T07:15:59;33.13;;;19.63;;
11034;SDS011;5571;48.110;-1.706;2022-12-10T07:18:25;24.93;;;17.13;;
11034;SDS011;5571;48.110;-1.706;2022-12-10T07:20:51;25.77;;;16.93;;
11034;SDS011;5571;48.110;-1.706;2022-12-10T07:23:17;30.27;;;18.40;;
11034;SDS011;5571;48.110;-1.706;2022-12-10T07:25:43;29.87;;;17.60;;
11034;SDS011;5571;48.110;-1.706;2022-12-10T07:28:08;28.43;;;17.83;;
11034;SDS011;5571;48.110;-1.706;2022-12-10T07:30:34;28.50;;;17.90;;
11034;SDS011;5571;48.110;-1.706;2022-12-10T07:33:00;27.87;;;17.70;;
11034;SDS011;5571;48.110;-1.706;2022-12-10T07:35:25;27.53;;;17.70;;
11034;SDS011;5571;48.110;-1.706;2022-12-10T07:37:51;30.57;;;19.53;;
11034;SDS011;5571;48.110;-1.706;2022-12-10T07:40:17;29.23;;;18.90;;
11034;SDS011;5571;48.110;-1.706;2022-12-10T07:42:42;29.37;;;18.30;;
11034;SDS011;5571;48.110;-1.706;2022-12-10T07:45:08;30.43;;;18.20;;
11034;SDS011;5571;48.110;-1.706;2022-12-10T07:47:35;23.10;;;17.20;;
11034;SDS011;5571;48.110;-1.706;2022-12-10T07:50:02;24.93;;;17.33;;
11034;SDS011;5571;48.110;-1.706;2022-12-10T07:52:28;29.93;;;19.00;;
11034;SDS011;5571;48.110;-1.706;2022-12-10T07:54:53;28.27;;;18.00;;
11034;SDS011;5571;48.110;-1.706;2022-12-10T07:57:19;24.80;;;17.90;;
11034;SDS011;5571;48.110;-1.706;2022-12-10T07:59:45;28.83;;;17.43;;
11034;SDS011;5571;48.110;-1.706;2022-12-10T08:02:11;26.07;;;18.47;;
11034;SDS011;5571;48.110;-1.706;2022-12-10T08:04:37;28.47;;;16.33;;
11034;SDS011;5571;48.110;-1.706;2022-12-10T08:07:02;27.37;;;18.13;;
11034;SDS011;5571;48.110;-1.706;2022-12-10T08:09:28;28.27;;;17.10;;
11034;SDS011;5571;48.110;-1.706;2022-12-10T08:11:54;25.10;;;17.20;;
11034;SDS011;5571;48.110;-1.706;2022-12-10T08:14:19;28.10;;;18.13;;
11034;SDS011;5571;48.110;-1.706;2022-12-10T08:16:45;26.00;;;18.23;;
11034;SDS011;5571;48.110;-1.706;2022-12-10T08:19:11;32.20;;;20.97;;
11034;SDS011;5571;48.110;-1.706;2022-12-10T08:21:36;31.53;;;21.40;;
11034;SDS011;5571;48.110;-1.706;2022-12-10T08:24:02;30.60;;;20.17;;
11034;SDS011;5571;48.110;-1.706;2022-12-10T08:26:29;29.57;;;19.43;;
11034;SDS011;5571;48.110;-1.706;2022-12-10T08:28:56;28.97;;;20.23;;
11034;SDS011;5571;48.110;-1.706;2022-12-10T08:31:22;31.27;;;21.10;;
11034;SDS011;5571;48.110;-1.706;2022-12-10T08:33:49;43.70;;;28.03;;
11034;SDS011;5571;48.110;-1.706;2022-12-10T08:36:15;44.57;;;26.80;;
11034;SDS011;5571;48.110;-1.706;2022-12-10T08:38:42;47.00;;;29.40;;
11034;SDS011;5571;48.110;-1.706;2022-12-10T08:41:09;34.03;;;22.53;;
11034;SDS011;5571;48.110;-1.706;2022-12-10T08:43:37;37.10;;;23.53;;
11034;SDS011;5571;48.110;-1.706;2022-12-10T08:46:02;28.33;;;19.53;;
11034;SDS011;5571;48.110;-1.706;2022-12-10T08:48:29;31.43;;;20.90;;
11034;SDS011;5571;48.110;-1.706;2022-12-10T08:50:55;33.37;;;21.00;;
11034;SDS011;5571;48.110;-1.706;2022-12-10T08:53:21;28.30;;;21.10;;
11034;SDS011;5571;48.110;-1.706;2022-12-10T08:55:49;30.63;;;20.77;;
11034;SDS011;5571;48.110;-1.706;2022-12-10T08:58:15;38.53;;;20.83;;
11034;SDS011;5571;48.110;-1.706;2022-12-10T09:00:41;33.63;;;21.43;;
11034;SDS011;5571;48.110;-1.706;2022-12-10T09:03:07;36.40;;;22.30;;
11034;SDS011;5571;48.110;-1.706;2022-12-10T09:05:34;37.37;;;22.37;;
11034;SDS011;5571;48.110;-1.706;2022-12-10T09:07:59;46.57;;;24.63;;
11034;SDS011;5571;48.110;-1.706;2022-12-10T09:10:25;38.83;;;22.70;;
11034;SDS011;5571;48.110;-1.706;2022-12-10T09:12:51;41.73;;;22.70;;
11034;SDS011;5571;48.110;-1.706;2022-12-10T09:15:16;49.87;;;22.70;;
11034;SDS011;5571;48.110;-1.706;2022-12-10T09:17:42;44.37;;;21.47;;
11034;SDS011;5571;48.110;-1.706;2022-12-10T09:20:08;33.17;;;21.63;;
11034;SDS011;5571;48.110;-1.706;2022-12-10T09:22:33;38.33;;;22.17;;
11034;SDS011;5571;48.110;-1.706;2022-12-10T09:25:02;35.97;;;22.50;;
11034;SDS011;5571;48.110;-1.706;2022-12-10T09:27:32;45.67;;;23.43;;
11034;SDS011;5571;48.110;-1.706;2022-12-10T09:29:58;35.17;;;20.80;;
11034;SDS011;5571;48.110;-1.706;2022-12-10T09:32:23;31.30;;;21.10;;
11034;SDS011;5571;48.110;-1.706;2022-12-10T09:34:52;36.07;;;21.27;;
11034;SDS011;5571;48.110;-1.706;2022-12-10T09:37:18;32.13;;;19.83;;
11034;SDS011;5571;48.110;-1.706;2022-12-10T09:39:44;33.70;;;20.30;;
11034;SDS011;5571;48.110;-1.706;2022-12-10T09:42:31;26.20;;;18.03;;
11034;SDS011;5571;48.110;-1.706;2022-12-10T09:45:32;22.67;;;15.33;;
11034;SDS011;5571;48.110;-1.706;2022-12-10T09:48:15;28.83;;;15.93;;
11034;SDS011;5571;48.110;-1.706;2022-12-10T09:53:20;28.00;;;17.00;;
11034;SDS011;5571;48.110;-1.706;2022-12-10T09:55:48;21.10;;;16.37;;
11034;SDS011;5571;48.110;-1.706;2022-12-10T09:58:22;25.57;;;17.47;;
11034;SDS011;5571;48.110;-1.706;2022-12-10T10:00:51;27.60;;;17.30;;
11034;SDS011;5571;48.110;-1.706;2022-12-10T10:03:31;25.30;;;16.37;;
11034;SDS011;5571;48.110;-1.706;2022-12-10T10:06:00;21.80;;;15.53;;
11034;SDS011;5571;48.110;-1.706;2022-12-10T10:08:29;23.33;;;15.90;;
11034;SDS011;5571;48.110;-1.706;2022-12-10T10:11:03;21.37;;;14.67;;
11034;SDS011;5571;48.110;-1.706;2022-12-10T10:13:34;21.10;;;15.23;;
11034;SDS011;5571;48.110;-1.706;2022-12-10T10:18:45;22.13;;;15.63;;
11034;SDS011;5571;48.110;-1.706;2022-12-10T10:21:23;22.67;;;16.10;;
11034;SDS011;5571;48.110;-1.706;2022-12-10T10:23:51;21.50;;;15.27;;
11034;SDS011;5571;48.110;-1.706;2022-12-10T10:26:17;24.87;;;16.80;;
11034;SDS011;5571;48.110;-1.706;2022-12-10T10:28:43;19.43;;;14.57;;
11034;SDS011;5571;48.110;-1.706;2022-12-10T10:31:21;21.17;;;14.10;;
11034;SDS011;5571;48.110;-1.706;2022-12-10T10:33:53;19.70;;;14.97;;
11034;SDS011;5571;48.110;-1.706;2022-12-10T10:36:39;20.90;;;15.40;;
11034;SDS011;5571;48.110;-1.706;2022-12-10T10:41:35;18.73;;;13.93;;
11034;SDS011;5571;48.110;-1.706;2022-12-10T10:44:11;18.37;;;12.93;;
11034;SDS011;5571;48.110;-1.706;2022-12-10T10:46:42;22.90;;;14.70;;
11034;SDS011;5571;48.110;-1.706;2022-12-10T10:51:58;18.60;;;13.90;;
11034;SDS011;5571;48.110;-1.706;2022-12-10T10:54:44;18.23;;;13.90;;
11034;SDS011;5571;48.110;-1.706;2022-12-10T10:57:12;22.53;;;12.97;;
11034;SDS011;5571;48.110;-1.706;2022-12-10T10:59:46;19.60;;;13.53;;
11034;SDS011;5571;48.110;-1.706;2022-12-10T11:02:18;16.43;;;12.53;;
11034;SDS011;5571;48.110;-1.706;2022-12-10T11:04:54;18.33;;;13.03;;
11034;SDS011;5571;48.110;-1.706;2022-12-10T11:10:12;18.50;;;11.77;;
11034;SDS011;5571;48.110;-1.706;2022-12-10T11:12:45;17.83;;;12.67;;
11034;SDS011;5571;48.110;-1.706;2022-12-10T11:17:49;18.00;;;12.50;;
11034;SDS011;5571;48.110;-1.706;2022-12-10T11:23:02;16.90;;;11.73;;
11034;SDS011;5571;48.110;-1.706;2022-12-10T11:25:49;18.57;;;12.97;;
11034;SDS011;5571;48.110;-1.706;2022-12-10T11:28:33;21.77;;;14.60;;
11034;SDS011;5571;48.110;-1.706;2022-12-10T11:42:31;24.10;;;13.40;;
11034;SDS011;5571;48.110;-1.706;2022-12-10T11:50:43;22.50;;;13.67;;
11034;SDS011;5571;48.110;-1.706;2022-12-10T11:56:20;16.23;;;12.80;;
11034;SDS011;5571;48.110;-1.706;2022-12-10T12:01:48;16.57;;;12.77;;
11034;SDS011;5571;48.110;-1.706;2022-12-10T12:04:27;19.77;;;13.83;;
11034;SDS011;5571;48.110;-1.706;2022-12-10T12:09:25;19.03;;;14.73;;
11034;SDS011;5571;48.110;-1.706;2022-12-10T12:11:59;23.73;;;17.07;;
11034;SDS011;5571;48.110;-1.706;2022-12-10T12:14:36;26.67;;;16.57;;
11034;SDS011;5571;48.110;-1.706;2022-12-10T12:17:12;18.83;;;13.73;;
11034;SDS011;5571;48.110;-1.706;2022-12-10T12:19:46;18.53;;;13.80;;
11034;SDS011;5571;48.110;-1.706;2022-12-10T12:22:32;19.77;;;15.27;;
11034;SDS011;5571;48.110;-1.706;2022-12-10T12:25:07;16.77;;;13.97;;
11034;SDS011;5571;48.110;-1.706;2022-12-10T12:27:46;20.23;;;13.80;;
11034;SDS011;5571;48.110;-1.706;2022-12-10T12:30:18;19.00;;;14.70;;
11034;SDS011;5571;48.110;-1.706;2022-12-10T12:38:28;18.60;;;14.63;;
11034;SDS011;5571;48.110;-1.706;2022-12-10T12:41:06;12.30;;;10.03;;
11034;SDS011;5571;48.110;-1.706;2022-12-10T12:44:00;10.27;;;9.17;;
11034;SDS011;5571;48.110;-1.706;2022-12-10T12:46:42;13.30;;;9.70;;
11034;SDS011;5571;48.110;-1.706;2022-12-10T12:49:15;11.60;;;9.83;;
11034;SDS011;5571;48.110;-1.706;2022-12-10T12:54:24;14.70;;;9.93;;
11034;SDS011;5571;48.110;-1.706;2022-12-10T12:56:58;14.10;;;10.50;;
11034;SDS011;5571;48.110;-1.706;2022-12-10T13:05:03;16.57;;;9.03;;
11034;SDS011;5571;48.110;-1.706;2022-12-10T13:07:31;9.50;;;8.00;;
11034;SDS011;5571;48.110;-1.706;2022-12-10T13:12:31;10.93;;;8.77;;
11034;SDS011;5571;48.110;-1.706;2022-12-10T13:17:39;9.83;;;7.53;;
11034;SDS011;5571;48.110;-1.706;2022-12-10T13:23:01;12.33;;;7.80;;
11034;SDS011;5571;48.110;-1.706;2022-12-10T13:25:41;12.70;;;8.23;;
11034;SDS011;5571;48.110;-1.706;2022-12-10T13:28:21;11.43;;;8.37;;
11034;SDS011;5571;48.110;-1.706;2022-12-10T13:33:46;9.40;;;7.43;;
11034;SDS011;5571;48.110;-1.706;2022-12-10T13:36:27;9.03;;;7.00;;
11034;SDS011;5571;48.110;-1.706;2022-12-10T13:41:33;13.73;;;7.80;;
11034;SDS011;5571;48.110;-1.706;2022-12-10T13:50:47;8.13;;;6.30;;
11034;SDS011;5571;48.110;-1.706;2022-12-10T14:00:57;6.50;;;5.73;;
11034;SDS011;5571;48.110;-1.706;2022-12-10T14:06:35;8.87;;;6.63;;
11034;SDS011;5571;48.110;-1.706;2022-12-10T14:11:48;8.00;;;6.27;;
11034;SDS011;5571;48.110;-1.706;2022-12-10T14:14:25;9.17;;;6.53;;
11034;SDS011;5571;48.110;-1.706;2022-12-10T14:16:59;11.03;;;7.67;;
11034;SDS011;5571;48.110;-1.706;2022-12-10T14:19:27;13.83;;;8.50;;
11034;SDS011;5571;48.110;-1.706;2022-12-10T14:21:54;13.57;;;7.13;;
11034;SDS011;5571;48.110;-1.706;2022-12-10T14:24:28;10.10;;;7.80;;
11034;SDS011;5571;48.110;-1.706;2022-12-10T14:26:58;10.27;;;7.40;;
11034;SDS011;5571;48.110;-1.706;2022-12-10T14:29:45;10.97;;;7.00;;
11034;SDS011;5571;48.110;-1.706;2022-12-10T14:32:17;10.87;;;6.83;;
11034;SDS011;5571;48.110;-1.706;2022-12-10T14:34:52;8.77;;;6.63;;
11034;SDS011;5571;48.110;-1.706;2022-12-10T14:37:23;8.63;;;6.57;;
11034;SDS011;5571;48.110;-1.706;2022-12-10T14:39:51;9.97;;;7.07;;
11034;SDS011;5571;48.110;-1.706;2022-12-10T14:42:17;8.83;;;6.30;;
11034;SDS011;5571;48.110;-1.706;2022-12-10T14:44:43;8.63;;;5.40;;
11034;SDS011;5571;48.110;-1.706;2022-12-10T14:47:17;5.73;;;4.73;;
11034;SDS011;5571;48.110;-1.706;2022-12-10T14:49:48;9.93;;;4.30;;
11034;SDS011;5571;48.110;-1.706;2022-12-10T14:52:17;6.87;;;4.40;;
11034;SDS011;5571;48.110;-1.706;2022-12-10T14:54:45;6.03;;;4.20;;
11034;SDS011;5571;48.110;-1.706;2022-12-10T15:02:39;5.83;;;4.77;;
11034;SDS011;5571;48.110;-1.706;2022-12-10T15:05:11;7.57;;;5.10;;
11034;SDS011;5571;48.110;-1.706;2022-12-10T15:07:43;6.70;;;5.23;;
11034;SDS011;5571;48.110;-1.706;2022-12-10T15:10:31;7.50;;;5.43;;
11034;SDS011;5571;48.110;-1.706;2022-12-10T15:13:03;6.03;;;4.63;;
11034;SDS011;5571;48.110;-1.706;2022-12-10T15:15:32;6.17;;;5.00;;
11034;SDS011;5571;48.110;-1.706;2022-12-10T15:20:44;7.27;;;5.37;;
11034;SDS011;5571;48.110;-1.706;2022-12-10T15:26:14;9.67;;;6.40;;
11034;SDS011;5571;48.110;-1.706;2022-12-10T15:28:38;10.03;;;5.93;;
11034;SDS011;5571;48.110;-1.706;2022-12-10T15:31:09;8.93;;;6.23;;
11034;SDS011;5571;48.110;-1.706;2022-12-10T15:33:37;8.67;;;6.37;;
11034;SDS011;5571;48.110;-1.706;2022-12-10T15:36:31;9.70;;;6.30;;
11034;SDS011;5571;48.110;-1.706;2022-12-10T15:39:10;9.10;;;6.90;;
11034;SDS011;5571;48.110;-1.706;2022-12-10T15:41:44;7.97;;;6.77;;
11034;SDS011;5571;48.110;-1.706;2022-12-10T15:44:18;10.90;;;7.10;;
11034;SDS011;5571;48.110;-1.706;2022-12-10T15:49:33;10.33;;;8.00;;
11034;SDS011;5571;48.110;-1.706;2022-12-10T15:51:59;13.90;;;10.17;;
11034;SDS011;5571;48.110;-1.706;2022-12-10T15:54:35;15.17;;;10.87;;
11034;SDS011;5571;48.110;-1.706;2022-12-10T15:59:43;26.97;;;15.97;;
11034;SDS011;5571;48.110;-1.706;2022-12-10T16:02:56;27.63;;;17.03;;
11034;SDS011;5571;48.110;-1.706;2022-12-10T16:04:59;31.47;;;18.07;;
11034;SDS011;5571;48.110;-1.706;2022-12-10T16:07:25;20.03;;;13.60;;
11034;SDS011;5571;48.110;-1.706;2022-12-10T16:09:51;21.33;;;12.67;;
11034;SDS011;5571;48.110;-1.706;2022-12-10T16:12:17;21.40;;;13.90;;
11034;SDS011;5571;48.110;-1.706;2022-12-10T16:14:50;16.77;;;12.10;;
11034;SDS011;5571;48.110;-1.706;2022-12-10T16:17:21;16.97;;;11.60;;
11034;SDS011;5571;48.110;-1.706;2022-12-10T16:19:47;21.97;;;11.53;;
11034;SDS011;5571;48.110;-1.706;2022-12-10T16:22:13;20.40;;;12.47;;
11034;SDS011;5571;48.110;-1.706;2022-12-10T16:24:38;21.07;;;13.90;;
11034;SDS011;5571;48.110;-1.706;2022-12-10T16:27:08;26.30;;;14.93;;
11034;SDS011;5571;48.110;-1.706;2022-12-10T16:29:39;19.23;;;13.23;;
11034;SDS011;5571;48.110;-1.706;2022-12-10T16:32:07;16.30;;;11.63;;
11034;SDS011;5571;48.110;-1.706;2022-12-10T16:34:34;31.30;;;15.53;;
11034;SDS011;5571;48.110;-1.706;2022-12-10T16:37:00;43.07;;;19.93;;
11034;SDS011;5571;48.110;-1.706;2022-12-10T16:39:26;63.27;;;26.90;;
11034;SDS011;5571;48.110;-1.706;2022-12-10T16:41:52;60.20;;;28.07;;
11034;SDS011;5571;48.110;-1.706;2022-12-10T16:44:18;46.00;;;23.63;;
11034;SDS011;5571;48.110;-1.706;2022-12-10T16:46:44;47.87;;;24.57;;
11034;SDS011;5571;48.110;-1.706;2022-12-10T16:49:10;40.37;;;22.90;;
11034;SDS011;5571;48.110;-1.706;2022-12-10T16:51:35;38.57;;;24.63;;
11034;SDS011;5571;48.110;-1.706;2022-12-10T16:54:02;28.70;;;17.60;;
11034;SDS011;5571;48.110;-1.706;2022-12-10T16:56:29;29.90;;;17.73;;